sensor_id;sensor_type;location;lat;lon;timestamp;pressure;altitude;pressure_sealevel;temperature;humidity
77207;BME280;66190;50.708;7.906;2024-01-15T00:00:18;94989.47;;;-2.46;100.00
77207;BME280;66190;50.708;7.906;2024-01-15T00:02:43;94980.09;;;-2.49;100.00
77207;BME280;66190;50.708;7.906;2024-01-15T00:05:09;94978.97;;;-2.38;100.00
77207;BME280;66190;50.708;7.906;2024-01-15T00:07:35;94982.88;;;-2.50;100.00
77207;BME280;66190;50.708;7.906;2024-01-15T00:10:00;94976.97;;;-2.44;100.00
77207;BME280;66190;50.708;7.906;2024-01-15T00:12:26;94971.88;;;-2.38;100.00
77207;BME280;66190;50.708;7.906;2024-01-15T00:14:52;94962.81;;;-2.43;100.00
77207;BME280;66190;50.708;7.906;2024-01-15T00:17:17;94955.47;;;-2.32;100.00
77207;BME280;66190;50.708;7.906;2024-01-15T00:19:42;94959.38;;;-2.44;100.00
77207;BME280;66190;50.708;7.906;2024-01-15T00:22:08;94955.28;;;-2.38;100.00
77207;BME280;66190;50.708;7.906;2024-01-15T00:24:33;94953.28;;;-2.36;100.00
77207;BME280;66190;50.708;7.906;2024-01-15T00:26:59;94953.00;;;-2.33;100.00
77207;BME280;66190;50.708;7.906;2024-01-15T00:29:24;94946.22;;;-2.36;100.00
77207;BME280;66190;50.708;7.906;2024-01-15T00:31:49;94951.34;;;-2.26;100.00
77207;BME280;66190;50.708;7.906;2024-01-15T00:34:15;94936.84;;;-2.30;100.00
77207;BME280;66190;50.708;7.906;2024-01-15T00:36:40;94938.53;;;-2.21;100.00
77207;BME280;66190;50.708;7.906;2024-01-15T00:39:06;94939.81;;;-2.17;100.00
77207;BME280;66190;50.708;7.906;2024-01-15T00:41:31;94945.28;;;-2.10;100.00
77207;BME280;66190;50.708;7.906;2024-01-15T00:43:57;94935.06;;;-2.13;100.00
77207;BME280;66190;50.708;7.906;2024-01-15T00:46:22;94930.44;;;-2.11;100.00
77207;BME280;66190;50.708;7.906;2024-01-15T00:48:48;94937.56;;;-2.04;100.00
77207;BME280;66190;50.708;7.906;2024-01-15T00:51:13;94932.63;;;-2.07;100.00
77207;BME280;66190;50.708;7.906;2024-01-15T00:53:40;94920.75;;;-2.03;100.00
77207;BME280;66190;50.708;7.906;2024-01-15T00:56:05;94922.72;;;-2.05;100.00
77207;BME280;66190;50.708;7.906;2024-01-15T00:58:31;94928.34;;;-2.00;100.00
77207;BME280;66190;50.708;7.906;2024-01-15T01:00:56;94914.31;;;-1.92;100.00
77207;BME280;66190;50.708;7.906;2024-01-15T01:03:21;94916.63;;;-1.97;100.00
77207;BME280;66190;50.708;7.906;2024-01-15T01:05:50;94911.84;;;-1.94;100.00
77207;BME280;66190;50.708;7.906;2024-01-15T01:08:16;94905.94;;;-1.88;100.00
77207;BME280;66190;50.708;7.906;2024-01-15T01:10:41;94906.09;;;-1.81;100.00
77207;BME280;66190;50.708;7.906;2024-01-15T01:13:10;94913.00;;;-1.80;100.00
77207;BME280;66190;50.708;7.906;2024-01-15T01:15:35;94910.53;;;-1.82;100.00
77207;BME280;66190;50.708;7.906;2024-01-15T01:18:00;94912.84;;;-1.79;100.00
77207;BME280;66190;50.708;7.906;2024-01-15T01:20:26;94911.19;;;-1.80;100.00
77207;BME280;66190;50.708;7.906;2024-01-15T01:22:51;94909.41;;;-1.79;100.00
77207;BME280;66190;50.708;7.906;2024-01-15T01:25:17;94902.94;;;-1.77;100.00
77207;BME280;66190;50.708;7.906;2024-01-15T01:27:42;94903.81;;;-1.84;100.00
77207;BME280;66190;50.708;7.906;2024-01-15T01:30:08;94917.47;;;-1.81;100.00
77207;BME280;66190;50.708;7.906;2024-01-15T01:32:34;94911.19;;;-1.80;100.00
77207;BME280;66190;50.708;7.906;2024-01-15T01:34:59;94918.28;;;-1.80;100.00
77207;BME280;66190;50.708;7.906;2024-01-15T01:37:25;94919.59;;;-1.76;100.00
77207;BME280;66190;50.708;7.906;2024-01-15T01:39:50;94918.59;;;-1.75;100.00
77207;BME280;66190;50.708;7.906;2024-01-15T01:42:16;94919.09;;;-1.80;100.00
77207;BME280;66190;50.708;7.906;2024-01-15T01:44:41;94916.13;;;-1.77;100.00
77207;BME280;66190;50.708;7.906;2024-01-15T01:47:07;94928.84;;;-1.72;100.00
77207;BME280;66190;50.708;7.906;2024-01-15T01:49:33;94919.94;;;-1.79;100.00
77207;BME280;66190;50.708;7.906;2024-01-15T01:52:01;94926.69;;;-1.85;100.00
77207;BME280;66190;50.708;7.906;2024-01-15T01:54:29;94919.63;;;-1.84;100.00
77207;BME280;66190;50.708;7.906;2024-01-15T01:56:57;94912.34;;;-1.90;100.00
77207;BME280;66190;50.708;7.906;2024-01-15T01:59:23;94913.50;;;-1.85;100.00
77207;BME280;66190;50.708;7.906;2024-01-15T02:01:50;94914.00;;;-1.89;100.00
77207;BME280;66190;50.708;7.906;2024-01-15T02:04:17;94924.69;;;-1.91;100.00
77207;BME280;66190;50.708;7.906;2024-01-15T02:06:42;94919.75;;;-1.94;100.00
77207;BME280;66190;50.708;7.906;2024-01-15T02:09:08;94923.06;;;-1.76;100.00
77207;BME280;66190;50.708;7.906;2024-01-15T02:11:34;94923.72;;;-1.74;100.00
77207;BME280;66190;50.708;7.906;2024-01-15T02:13:59;94917.47;;;-1.73;100.00
77207;BME280;66190;50.708;7.906;2024-01-15T02:16:25;94928.81;;;-1.80;100.00
77207;BME280;66190;50.708;7.906;2024-01-15T02:18:50;94922.09;;;-1.83;100.00
77207;BME280;66190;50.708;7.906;2024-01-15T02:21:16;94912.84;;;-1.79;100.00
77207;BME280;66190;50.708;7.906;2024-01-15T02:23:41;94909.06;;;-1.60;100.00
77207;BME280;66190;50.708;7.906;2024-01-15T02:26:07;94910.84;;;-1.45;100.00
77207;BME280;66190;50.708;7.906;2024-01-15T02:28:33;94911.44;;;-1.27;100.00
77207;BME280;66190;50.708;7.906;2024-01-15T02:30:59;94909.94;;;-1.21;100.00
77207;BME280;66190;50.708;7.906;2024-01-15T02:33:24;94906.25;;;-1.04;100.00
77207;BME280;66190;50.708;7.906;2024-01-15T02:35:50;94906.75;;;-1.00;100.00
77207;BME280;66190;50.708;7.906;2024-01-15T02:38:15;94906.56;;;-0.91;100.00
77207;BME280;66190;50.708;7.906;2024-01-15T02:40:42;94915.81;;;-0.95;100.00
77207;BME280;66190;50.708;7.906;2024-01-15T02:43:08;94904.41;;;-0.87;100.00
77207;BME280;66190;50.708;7.906;2024-01-15T02:45:33;94906.69;;;-0.84;100.00
77207;BME280;66190;50.708;7.906;2024-01-15T02:47:59;94909.34;;;-0.84;100.00
77207;BME280;66190;50.708;7.906;2024-01-15T02:50:24;94914.63;;;-0.84;100.00
77207;BME280;66190;50.708;7.906;2024-01-15T02:52:50;94911.31;;;-0.86;100.00
77207;BME280;66190;50.708;7.906;2024-01-15T02:55:15;94914.44;;;-0.83;100.00
77207;BME280;66190;50.708;7.906;2024-01-15T02:57:41;94910.00;;;-0.82;100.00
77207;BME280;66190;50.708;7.906;2024-01-15T03:00:06;94912.50;;;-0.89;100.00
77207;BME280;66190;50.708;7.906;2024-01-15T03:02:33;94913.16;;;-0.87;100.00
77207;BME280;66190;50.708;7.906;2024-01-15T03:04:58;94907.88;;;-0.87;100.00
77207;BME280;66190;50.708;7.906;2024-01-15T03:07:24;94915.44;;;-0.84;100.00
77207;BME280;66190;50.708;7.906;2024-01-15T03:09:49;94914.97;;;-0.87;100.00
77207;BME280;66190;50.708;7.906;2024-01-15T03:12:15;94916.09;;;-0.82;100.00
77207;BME280;66190;50.708;7.906;2024-01-15T03:14:40;94920.06;;;-0.86;100.00
77207;BME280;66190;50.708;7.906;2024-01-15T03:17:06;94918.94;;;-0.91;100.00
77207;BME280;66190;50.708;7.906;2024-01-15T03:19:35;94905.06;;;-0.85;100.00
77207;BME280;66190;50.708;7.906;2024-01-15T03:22:00;94903.13;;;-0.99;100.00
77207;BME280;66190;50.708;7.906;2024-01-15T03:24:27;94910.19;;;-0.92;100.00
77207;BME280;66190;50.708;7.906;2024-01-15T03:26:53;94914.31;;;-0.89;100.00
77207;BME280;66190;50.708;7.906;2024-01-15T03:29:18;94910.34;;;-0.85;100.00
77207;BME280;66190;50.708;7.906;2024-01-15T03:31:44;94904.22;;;-0.86;100.00
77207;BME280;66190;50.708;7.906;2024-01-15T03:34:09;94904.72;;;-0.82;100.00
77207;BME280;66190;50.708;7.906;2024-01-15T03:36:34;94905.84;;;-0.77;100.00
77207;BME280;66190;50.708;7.906;2024-01-15T03:39:00;94911.31;;;-0.86;100.00
77207;BME280;66190;50.708;7.906;2024-01-15T03:41:25;94895.66;;;-0.88;100.00
77207;BME280;66190;50.708;7.906;2024-01-15T03:43:51;94907.19;;;-0.81;100.00
77207;BME280;66190;50.708;7.906;2024-01-15T03:46:16;94902.91;;;-0.82;100.00
77207;BME280;66190;50.708;7.906;2024-01-15T03:48:41;94901.06;;;-0.81;100.00
77207;BME280;66190;50.708;7.906;2024-01-15T03:51:07;94903.72;;;-0.81;100.00
77207;BME280;66190;50.708;7.906;2024-01-15T03:53:32;94908.38;;;-0.91;100.00
77207;BME280;66190;50.708;7.906;2024-01-15T03:55:57;94906.53;;;-0.83;100.00
77207;BME280;66190;50.708;7.906;2024-01-15T03:58:23;94908.97;;;-0.73;100.00
77207;BME280;66190;50.708;7.906;2024-01-15T04:00:48;94904.50;;;-0.73;100.00
77207;BME280;66190;50.708;7.906;2024-01-15T04:03:14;94907.31;;;-0.74;100.00
77207;BME280;66190;50.708;7.906;2024-01-15T04:05:39;94898.25;;;-0.80;100.00
77207;BME280;66190;50.708;7.906;2024-01-15T04:08:05;94902.69;;;-0.72;100.00
77207;BME280;66190;50.708;7.906;2024-01-15T04:10:30;94906.66;;;-0.76;100.00
77207;BME280;66190;50.708;7.906;2024-01-15T04:12:56;94902.56;;;-0.79;100.00
77207;BME280;66190;50.708;7.906;2024-01-15T04:15:22;94895.13;;;-0.83;100.00
77207;BME280;66190;50.708;7.906;2024-01-15T04:17:47;94902.72;;;-0.80;100.00
77207;BME280;66190;50.708;7.906;2024-01-15T04:20:12;94893.16;;;-0.81;100.00
77207;BME280;66190;50.708;7.906;2024-01-15T04:22:38;94898.09;;;-0.78;100.00
77207;BME280;66190;50.708;7.906;2024-01-15T04:25:04;94906.63;;;-0.68;100.00
77207;BME280;66190;50.708;7.906;2024-01-15T04:27:30;94901.72;;;-0.71;100.00
77207;BME280;66190;50.708;7.906;2024-01-15T04:29:55;94895.78;;;-0.73;100.00
77207;BME280;66190;50.708;7.906;2024-01-15T04:32:21;94893.13;;;-0.73;100.00
77207;BME280;66190;50.708;7.906;2024-01-15T04:34:46;94891.16;;;-0.79;100.00
77207;BME280;66190;50.708;7.906;2024-01-15T04:37:13;94889.53;;;-0.80;100.00
77207;BME280;66190;50.708;7.906;2024-01-15T04:39:38;94891.81;;;-0.77;100.00
77207;BME280;66190;50.708;7.906;2024-01-15T04:42:04;94896.56;;;-0.73;100.00
77207;BME280;66190;50.708;7.906;2024-01-15T04:44:29;94890.66;;;-0.75;100.00
77207;BME280;66190;50.708;7.906;2024-01-15T04:46:55;94896.75;;;-0.74;100.00
77207;BME280;66190;50.708;7.906;2024-01-15T04:49:20;94886.53;;;-0.77;100.00
77207;BME280;66190;50.708;7.906;2024-01-15T04:51:46;94897.22;;;-0.71;100.00
77207;BME280;66190;50.708;7.906;2024-01-15T04:54:11;94896.06;;;-0.68;100.00
77207;BME280;66190;50.708;7.906;2024-01-15T04:56:37;94893.63;;;-0.78;100.00
77207;BME280;66190;50.708;7.906;2024-01-15T04:59:02;94884.44;;;-0.82;100.00
77207;BME280;66190;50.708;7.906;2024-01-15T05:01:31;94886.53;;;-0.77;100.00
77207;BME280;66190;50.708;7.906;2024-01-15T05:03:57;94882.59;;;-0.81;100.00
77207;BME280;66190;50.708;7.906;2024-01-15T05:06:23;94874.66;;;-0.81;100.00
77207;BME280;66190;50.708;7.906;2024-01-15T05:08:48;94881.94;;;-0.83;100.00
77207;BME280;66190;50.708;7.906;2024-01-15T05:11:13;94878.31;;;-0.82;100.00
77207;BME280;66190;50.708;7.906;2024-01-15T05:13:40;94873.22;;;-0.84;100.00
77207;BME280;66190;50.708;7.906;2024-01-15T05:16:05;94876.34;;;-0.80;100.00
77207;BME280;66190;50.708;7.906;2024-01-15T05:18:31;94868.53;;;-0.74;100.00
77207;BME280;66190;50.708;7.906;2024-01-15T05:20:56;94862.13;;;-0.79;100.00
77207;BME280;66190;50.708;7.906;2024-01-15T05:23:22;94872.00;;;-0.73;100.00
77207;BME280;66190;50.708;7.906;2024-01-15T05:25:47;94877.97;;;-0.79;100.00
77207;BME280;66190;50.708;7.906;2024-01-15T05:28:13;94875.50;;;-0.81;100.00
77207;BME280;66190;50.708;7.906;2024-01-15T05:30:39;94871.53;;;-0.77;100.00
77207;BME280;66190;50.708;7.906;2024-01-15T05:33:04;94868.59;;;-0.82;100.00
77207;BME280;66190;50.708;7.906;2024-01-15T05:35:30;94871.53;;;-0.85;100.00
77207;BME280;66190;50.708;7.906;2024-01-15T05:37:55;94876.50;;;-0.82;100.00
77207;BME280;66190;50.708;7.906;2024-01-15T05:40:20;94872.84;;;-0.81;100.00
77207;BME280;66190;50.708;7.906;2024-01-15T05:42:46;94869.75;;;-0.84;100.00
77207;BME280;66190;50.708;7.906;2024-01-15T05:45:11;94862.66;;;-0.84;100.00
77207;BME280;66190;50.708;7.906;2024-01-15T05:47:37;94853.25;;;-0.86;100.00
77207;BME280;66190;50.708;7.906;2024-01-15T05:50:02;94861.28;;;-0.80;100.00
77207;BME280;66190;50.708;7.906;2024-01-15T05:52:27;94863.31;;;-0.82;100.00
77207;BME280;66190;50.708;7.906;2024-01-15T05:54:53;94867.88;;;-0.76;100.00
77207;BME280;66190;50.708;7.906;2024-01-15T05:57:18;94867.69;;;-0.74;100.00
77207;BME280;66190;50.708;7.906;2024-01-15T05:59:44;94862.41;;;-0.74;100.00
77207;BME280;66190;50.708;7.906;2024-01-15T06:02:10;94858.63;;;-0.72;100.00
77207;BME280;66190;50.708;7.906;2024-01-15T06:04:36;94860.91;;;-0.69;100.00
77207;BME280;66190;50.708;7.906;2024-01-15T06:07:01;94870.66;;;-0.69;100.00
77207;BME280;66190;50.708;7.906;2024-01-15T06:09:26;94876.56;;;-0.59;100.00
77207;BME280;66190;50.708;7.906;2024-01-15T06:11:53;94863.06;;;-0.64;100.00
77207;BME280;66190;50.708;7.906;2024-01-15T06:14:18;94857.50;;;-0.77;100.00
77207;BME280;66190;50.708;7.906;2024-01-15T06:16:43;94863.84;;;-0.64;100.00
77207;BME280;66190;50.708;7.906;2024-01-15T06:19:09;94855.88;;;-0.78;100.00
77207;BME280;66190;50.708;7.906;2024-01-15T06:21:34;94859.13;;;-0.76;100.00
77207;BME280;66190;50.708;7.906;2024-01-15T06:23:59;94854.19;;;-0.71;100.00
77207;BME280;66190;50.708;7.906;2024-01-15T06:26:25;94847.22;;;-0.72;100.00
77207;BME280;66190;50.708;7.906;2024-01-15T06:28:50;94854.00;;;-0.70;100.00
77207;BME280;66190;50.708;7.906;2024-01-15T06:31:16;94849.94;;;-0.80;100.00
77207;BME280;66190;50.708;7.906;2024-01-15T06:33:41;94852.28;;;-0.85;100.00
77207;BME280;66190;50.708;7.906;2024-01-15T06:36:07;94853.69;;;-0.75;100.00
77207;BME280;66190;50.708;7.906;2024-01-15T06:38:32;94853.25;;;-0.86;100.00
77207;BME280;66190;50.708;7.906;2024-01-15T06:40:58;94860.63;;;-0.74;100.00
77207;BME280;66190;50.708;7.906;2024-01-15T06:43:23;94849.63;;;-0.85;100.00
77207;BME280;66190;50.708;7.906;2024-01-15T06:45:49;94854.84;;;-0.77;100.00
77207;BME280;66190;50.708;7.906;2024-01-15T06:48:15;94852.09;;;-0.84;100.00
77207;BME280;66190;50.708;7.906;2024-01-15T06:50:42;94851.22;;;-0.76;100.00
77207;BME280;66190;50.708;7.906;2024-01-15T06:53:07;94855.69;;;-0.77;100.00
77207;BME280;66190;50.708;7.906;2024-01-15T06:55:33;94838.91;;;-0.84;100.00
77207;BME280;66190;50.708;7.906;2024-01-15T06:57:58;94853.56;;;-0.81;100.00
77207;BME280;66190;50.708;7.906;2024-01-15T07:00:24;94845.50;;;-0.88;100.00
77207;BME280;66190;50.708;7.906;2024-01-15T07:02:49;94844.19;;;-0.84;100.00
77207;BME280;66190;50.708;7.906;2024-01-15T07:05:15;94841.53;;;-0.84;100.00
77207;BME280;66190;50.708;7.906;2024-01-15T07:07:40;94837.53;;;-0.80;100.00
77207;BME280;66190;50.708;7.906;2024-01-15T07:10:06;94845.31;;;-0.86;100.00
77207;BME280;66190;50.708;7.906;2024-01-15T07:12:32;94845.63;;;-0.81;100.00
77207;BME280;66190;50.708;7.906;2024-01-15T07:14:57;94847.19;;;-0.95;100.00
77207;BME280;66190;50.708;7.906;2024-01-15T07:17:23;94850.66;;;-0.94;100.00
77207;BME280;66190;50.708;7.906;2024-01-15T07:19:48;94845.31;;;-0.86;100.00
77207;BME280;66190;50.708;7.906;2024-01-15T07:22:14;94837.28;;;-0.93;100.00
77207;BME280;66190;50.708;7.906;2024-01-15T07:24:43;94843.75;;;-1.03;100.00
77207;BME280;66190;50.708;7.906;2024-01-15T07:27:09;94841.44;;;-0.98;100.00
77207;BME280;66190;50.708;7.906;2024-01-15T07:29:35;94845.25;;;-1.01;100.00
77207;BME280;66190;50.708;7.906;2024-01-15T07:32:02;94840.28;;;-0.96;100.00
77207;BME280;66190;50.708;7.906;2024-01-15T07:34:28;94838.44;;;-0.95;100.00
77207;BME280;66190;50.708;7.906;2024-01-15T07:36:53;94844.38;;;-0.93;100.00
77207;BME280;66190;50.708;7.906;2024-01-15T07:39:19;94842.13;;;-1.04;100.00
77207;BME280;66190;50.708;7.906;2024-01-15T07:41:44;94835.66;;;-0.94;100.00
77207;BME280;66190;50.708;7.906;2024-01-15T07:44:09;94840.28;;;-0.96;100.00
77207;BME280;66190;50.708;7.906;2024-01-15T07:46:35;94836.63;;;-0.87;100.00
77207;BME280;66190;50.708;7.906;2024-01-15T07:49:00;94834.28;;;-0.82;100.00
77207;BME280;66190;50.708;7.906;2024-01-15T07:51:26;94832.47;;;-0.89;100.00
77207;BME280;66190;50.708;7.906;2024-01-15T07:53:53;94833.81;;;-0.93;100.00
77207;BME280;66190;50.708;7.906;2024-01-15T07:56:19;94828.34;;;-0.92;100.00
77207;BME280;66190;50.708;7.906;2024-01-15T07:58:44;94828.22;;;-0.90;100.00
77207;BME280;66190;50.708;7.906;2024-01-15T08:01:10;94831.47;;;-0.88;100.00
77207;BME280;66190;50.708;7.906;2024-01-15T08:03:35;94839.56;;;-0.90;100.00
77207;BME280;66190;50.708;7.906;2024-01-15T08:06:00;94833.31;;;-0.89;100.00
77207;BME280;66190;50.708;7.906;2024-01-15T08:08:26;94836.28;;;-0.92;100.00
77207;BME280;66190;50.708;7.906;2024-01-15T08:10:52;94827.56;;;-0.92;100.00
77207;BME280;66190;50.708;7.906;2024-01-15T08:13:18;94829.41;;;-1.01;100.00
77207;BME280;66190;50.708;7.906;2024-01-15T08:15:45;94828.72;;;-0.95;100.00
77207;BME280;66190;50.708;7.906;2024-01-15T08:18:10;94827.09;;;-0.96;100.00
77207;BME280;66190;50.708;7.906;2024-01-15T08:20:36;94813.84;;;-0.88;100.00
77207;BME280;66190;50.708;7.906;2024-01-15T08:23:02;94821.63;;;-0.94;100.00
77207;BME280;66190;50.708;7.906;2024-01-15T08:25:28;94829.72;;;-0.96;100.00
77207;BME280;66190;50.708;7.906;2024-01-15T08:27:53;94818.34;;;-0.96;100.00
77207;BME280;66190;50.708;7.906;2024-01-15T08:30:18;94822.41;;;-0.86;100.00
77207;BME280;66190;50.708;7.906;2024-01-15T08:32:45;94829.31;;;-0.85;100.00
77207;BME280;66190;50.708;7.906;2024-01-15T08:35:11;94827.69;;;-0.86;100.00
77207;BME280;66190;50.708;7.906;2024-01-15T08:37:38;94828.03;;;-0.89;100.00
77207;BME280;66190;50.708;7.906;2024-01-15T08:40:03;94838.28;;;-0.94;100.00
77207;BME280;66190;50.708;7.906;2024-01-15T08:42:29;94832.00;;;-0.93;100.00
77207;BME280;66190;50.708;7.906;2024-01-15T08:44:54;94822.31;;;-1.00;100.00
77207;BME280;66190;50.708;7.906;2024-01-15T08:47:20;94827.16;;;-0.81;100.00
77207;BME280;66190;50.708;7.906;2024-01-15T08:49:46;94831.34;;;-0.87;100.00
77207;BME280;66190;50.708;7.906;2024-01-15T08:52:12;94835.59;;;-0.86;100.00
77207;BME280;66190;50.708;7.906;2024-01-15T08:54:37;94828.53;;;-0.93;100.00
77207;BME280;66190;50.708;7.906;2024-01-15T08:57:03;94835.13;;;-0.89;100.00
77207;BME280;66190;50.708;7.906;2024-01-15T08:59:28;94837.28;;;-0.93;100.00
77207;BME280;66190;50.708;7.906;2024-01-15T09:01:54;94836.44;;;-0.93;100.00
77207;BME280;66190;50.708;7.906;2024-01-15T09:04:23;94832.66;;;-0.91;100.00
77207;BME280;66190;50.708;7.906;2024-01-15T09:06:48;94847.66;;;-0.91;100.00
77207;BME280;66190;50.708;7.906;2024-01-15T09:09:14;94836.97;;;-0.98;100.00
77207;BME280;66190;50.708;7.906;2024-01-15T09:11:40;94841.56;;;-0.92;100.00
77207;BME280;66190;50.708;7.906;2024-01-15T09:14:06;94843.22;;;-0.99;100.00
77207;BME280;66190;50.708;7.906;2024-01-15T09:16:32;94841.91;;;-0.95;100.00
77207;BME280;66190;50.708;7.906;2024-01-15T09:18:57;94847.56;;;-1.06;100.00
77207;BME280;66190;50.708;7.906;2024-01-15T09:21:23;94840.13;;;-1.02;100.00
77207;BME280;66190;50.708;7.906;2024-01-15T09:23:50;94840.03;;;-1.17;100.00
77207;BME280;66190;50.708;7.906;2024-01-15T09:26:16;94839.38;;;-1.19;100.00
77207;BME280;66190;50.708;7.906;2024-01-15T09:28:41;94845.50;;;-1.27;100.00
77207;BME280;66190;50.708;7.906;2024-01-15T09:31:07;94840.88;;;-1.17;100.00
77207;BME280;66190;50.708;7.906;2024-01-15T09:33:32;94842.81;;;-1.10;100.00
77207;BME280;66190;50.708;7.906;2024-01-15T09:36:02;94843.94;;;-1.05;100.00
77207;BME280;66190;50.708;7.906;2024-01-15T09:38:29;94843.16;;;-1.13;100.00
77207;BME280;66190;50.708;7.906;2024-01-15T09:40:55;94842.38;;;-1.22;100.00
77207;BME280;66190;50.708;7.906;2024-01-15T09:43:21;94840.88;;;-1.25;100.00
77207;BME280;66190;50.708;7.906;2024-01-15T09:45:48;94841.88;;;-1.26;100.00
77207;BME280;66190;50.708;7.906;2024-01-15T09:48:14;94843.69;;;-1.26;100.00
77207;BME280;66190;50.708;7.906;2024-01-15T09:50:39;94852.75;;;-1.21;100.00
77207;BME280;66190;50.708;7.906;2024-01-15T09:53:05;94858.69;;;-1.27;100.00
77207;BME280;66190;50.708;7.906;2024-01-15T09:55:31;94844.53;;;-1.26;100.00
77207;BME280;66190;50.708;7.906;2024-01-15T09:57:59;94848.75;;;-1.08;100.00
77207;BME280;66190;50.708;7.906;2024-01-15T10:00:26;94845.31;;;-1.17;100.00
77207;BME280;66190;50.708;7.906;2024-01-15T10:02:52;94842.66;;;-1.17;100.00
77207;BME280;66190;50.708;7.906;2024-01-15T10:05:17;94834.75;;;-1.17;100.00
77207;BME280;66190;50.708;7.906;2024-01-15T10:07:43;94830.44;;;-1.10;100.00
77207;BME280;66190;50.708;7.906;2024-01-15T10:10:11;94825.66;;;-1.15;100.00
77207;BME280;66190;50.708;7.906;2024-01-15T10:12:36;94823.50;;;-1.11;100.00
77207;BME280;66190;50.708;7.906;2024-01-15T10:15:03;94817.03;;;-1.00;100.00
77207;BME280;66190;50.708;7.906;2024-01-15T10:17:29;94812.31;;;-1.13;100.00
77207;BME280;66190;50.708;7.906;2024-01-15T10:19:56;94813.91;;;-1.04;100.00
77207;BME280;66190;50.708;7.906;2024-01-15T10:22:22;94807.66;;;-1.11;100.00
77207;BME280;66190;50.708;7.906;2024-01-15T10:24:48;94808.38;;;-1.17;100.00
77207;BME280;66190;50.708;7.906;2024-01-15T10:27:14;94804.72;;;-1.08;100.00
77207;BME280;66190;50.708;7.906;2024-01-15T10:29:41;94796.81;;;-1.16;100.00
77207;BME280;66190;50.708;7.906;2024-01-15T10:32:07;94790.38;;;-1.13;100.00
77207;BME280;66190;50.708;7.906;2024-01-15T10:34:39;94790.94;;;-1.26;100.00
77207;BME280;66190;50.708;7.906;2024-01-15T10:37:07;94784.63;;;-1.17;100.00
77207;BME280;66190;50.708;7.906;2024-01-15T10:39:32;94792.53;;;-1.17;100.00
77207;BME280;66190;50.708;7.906;2024-01-15T10:41:58;94797.69;;;-1.24;100.00
77207;BME280;66190;50.708;7.906;2024-01-15T10:44:23;94799.28;;;-1.15;100.00
77207;BME280;66190;50.708;7.906;2024-01-15T10:46:49;94792.38;;;-1.16;100.00
77207;BME280;66190;50.708;7.906;2024-01-15T10:49:15;94799.75;;;-1.11;100.00
77207;BME280;66190;50.708;7.906;2024-01-15T10:51:41;94793.03;;;-1.13;100.00
77207;BME280;66190;50.708;7.906;2024-01-15T10:54:09;94792.19;;;-1.14;100.00
77207;BME280;66190;50.708;7.906;2024-01-15T10:56:36;94795.66;;;-1.13;100.00
77207;BME280;66190;50.708;7.906;2024-01-15T10:59:03;94793.69;;;-1.11;100.00
77207;BME280;66190;50.708;7.906;2024-01-15T11:01:30;94787.09;;;-1.16;100.00
77207;BME280;66190;50.708;7.906;2024-01-15T11:03:56;94795.34;;;-1.19;100.00
77207;BME280;66190;50.708;7.906;2024-01-15T11:06:25;94804.72;;;-1.16;100.00
77207;BME280;66190;50.708;7.906;2024-01-15T11:08:53;94799.50;;;-1.24;100.00
77207;BME280;66190;50.708;7.906;2024-01-15T11:11:20;94797.16;;;-1.19;100.00
77207;BME280;66190;50.708;7.906;2024-01-15T11:13:47;94799.75;;;-1.11;100.00
77207;BME280;66190;50.708;7.906;2024-01-15T11:16:15;94796.19;;;-0.87;100.00
77207;BME280;66190;50.708;7.906;2024-01-15T11:21:23;94801.75;;;-0.82;100.00
77207;BME280;66190;50.708;7.906;2024-01-15T11:23:58;94799.84;;;-0.66;100.00
77207;BME280;66190;50.708;7.906;2024-01-15T11:29:04;94803.84;;;-0.47;100.00
77207;BME280;66190;50.708;7.906;2024-01-15T11:34:15;94805.84;;;-0.49;100.00
77207;BME280;66190;50.708;7.906;2024-01-15T11:42:02;94811.69;;;-0.39;100.00
77207;BME280;66190;50.708;7.906;2024-01-15T11:44:29;94802.91;;;-0.32;100.00
77207;BME280;66190;50.708;7.906;2024-01-15T11:47:01;94810.66;;;-0.30;100.00
77207;BME280;66190;50.708;7.906;2024-01-15T11:52:25;94804.59;;;-0.16;100.00
77207;BME280;66190;50.708;7.906;2024-01-15T11:55:14;94803.94;;;-0.18;100.00
77207;BME280;66190;50.708;7.906;2024-01-15T11:57:46;94811.13;;;-0.27;100.00
77207;BME280;66190;50.708;7.906;2024-01-15T12:00:13;94801.25;;;-0.33;100.00
77207;BME280;66190;50.708;7.906;2024-01-15T12:02:45;94814.94;;;-0.29;100.00
77207;BME280;66190;50.708;7.906;2024-01-15T12:05:13;94808.59;;;-0.20;100.00
77207;BME280;66190;50.708;7.906;2024-01-15T12:07:42;94827.34;;;-0.30;100.00
77207;BME280;66190;50.708;7.906;2024-01-15T12:10:21;94824.38;;;-0.35;100.00
77207;BME280;66190;50.708;7.906;2024-01-15T12:13:00;94827.47;;;-0.31;100.00
77207;BME280;66190;50.708;7.906;2024-01-15T12:15:27;94832.44;;;-0.51;100.00
77207;BME280;66190;50.708;7.906;2024-01-15T12:17:57;94848.97;;;-0.57;100.00
77207;BME280;66190;50.708;7.906;2024-01-15T12:20:27;94820.84;;;-0.50;100.00
77207;BME280;66190;50.708;7.906;2024-01-15T12:22:53;94826.25;;;-0.43;100.00
77207;BME280;66190;50.708;7.906;2024-01-15T12:25:27;94827.44;;;-0.46;100.00
77207;BME280;66190;50.708;7.906;2024-01-15T12:27:54;94838.03;;;-0.54;100.00
77207;BME280;66190;50.708;7.906;2024-01-15T12:30:20;94835.09;;;-0.59;100.00
77207;BME280;66190;50.708;7.906;2024-01-15T12:32:46;94832.28;;;-0.57;100.00
77207;BME280;66190;50.708;7.906;2024-01-15T12:35:14;94831.34;;;-0.42;100.00
77207;BME280;66190;50.708;7.906;2024-01-15T12:37:41;94833.72;;;-0.47;100.00
77207;BME280;66190;50.708;7.906;2024-01-15T12:40:08;94843.41;;;-0.39;100.00
77207;BME280;66190;50.708;7.906;2024-01-15T12:42:43;94836.22;;;-0.53;100.00
77207;BME280;66190;50.708;7.906;2024-01-15T12:45:10;94841.34;;;-0.52;100.00
77207;BME280;66190;50.708;7.906;2024-01-15T12:47:37;94839.25;;;-0.34;100.00
77207;BME280;66190;50.708;7.906;2024-01-15T12:50:06;94843.97;;;-0.52;100.00
77207;BME280;66190;50.708;7.906;2024-01-15T12:52:32;94841.31;;;-0.44;100.00
77207;BME280;66190;50.708;7.906;2024-01-15T12:54:57;94844.22;;;-0.39;100.00
77207;BME280;66190;50.708;7.906;2024-01-15T12:57:23;94838.94;;;-0.61;100.00
77207;BME280;66190;50.708;7.906;2024-01-15T12:59:49;94857.16;;;-0.44;100.00